This is the latest recevied weather packets stored in our database for station/object OH6LSL. If no packets are shown the sender has not sent any weather packets the latest 10 day(s).
| Time | Temp. | Humidity | Pressure | Rain* | Wind** | Luminosity | Snow |
|---|---|---|---|---|---|---|---|
| 1777774496 | 3.89° C | 55% | 1002.7 hPa | 0 mm | - | 11 W/m² | - |
| 1777773288 | 3.89° C | 55% | 1002.7 hPa | 0 mm | - | 7 W/m² | - |
| 1777772689 | 4.44° C | 54% | 1002.6 hPa | 0 mm | - | 5 W/m² | - |
| 1777772080 | 4.44° C | 54% | 1002.6 hPa | 0 mm | - | 0 W/m² | - |
| 1777767877 | 5° C | 59% | 1002.7 hPa | 0 mm | - | 0 W/m² | - |
| 1777766685 | 5° C | 63% | 1002.7 hPa | 0 mm | - | 0 W/m² | - |
| 1777764873 | 5° C | 67% | 1002.4 hPa | 0 mm | - | 0 W/m² | - |
| 1777762488 | 5.56° C | 65% | 1002.8 hPa | 0 mm | - | 0 W/m² | - |
| 1777757073 | 8.89° C | 55% | 1001.8 hPa | 0 mm | - | 0 W/m² | - |
| 1777753487 | 8.89° C | 54% | 1001.5 hPa | 0 mm | - | 0 W/m² | - |
| 1777752887 | 8.89° C | 53% | 1001.4 hPa | 0 mm | - | 0 W/m² | - |
| 1777750494 | 8.33° C | 62% | 1001.3 hPa | 0 mm | - | 0 W/m² | - |
| 1777749874 | 8.33° C | 62% | 1001.2 hPa | 0 mm | - | 0 W/m² | - |
| 1777747483 | 8.89° C | 60% | 1000.8 hPa | 0 mm | - | 7 W/m² | - |
| 1777738501 | 11.67° C | 50% | 1001 hPa | 0 mm | - | 65 W/m² | - |
| 1777736672 | 12.22° C | 49% | 1001.1 hPa | 0 mm | - | 88 W/m² | - |
| 1777732480 | 13.89° C | 44% | 1001.2 hPa | 0 mm | - | 144 W/m² | - |
| 1777731885 | 13.89° C | 44% | 1001.3 hPa | 0 mm | - | 181 W/m² | - |
| 1777720508 | 14.44° C | 45% | 1001.5 hPa | 0 mm | - | 197 W/m² | - |
| 1777719888 | 14.44° C | 44% | 1001.5 hPa | 0 mm | - | 234 W/m² | - |
| 1777719287 | 14.44° C | 45% | 1001.5 hPa | 0 mm | - | 575 W/m² | - |
| 1777718688 | 13.33° C | 50% | 1001.3 hPa | 0 mm | - | 178 W/m² | - |
| 1777715679 | 13.33° C | 50% | 1001.7 hPa | 0 mm | - | 246 W/m² | - |
| 1777715101 | 13.89° C | 48% | 1001.4 hPa | 0 mm | - | 199 W/m² | - |
| 1777713283 | 14.44° C | 48% | 1001.6 hPa | 0 mm | - | 211 W/m² | - |
* Rain latest hour (hover to see other rain measurements)
** Current wind speed in m/s (hover to see current wind gust speed)